createdAt,value
2019-02-03T00:00:39.076Z,3.35
2019-02-03T00:01:39.006Z,3.22
2019-02-03T00:02:38.941Z,3.23
2019-02-03T00:03:38.872Z,3.29
2019-02-03T00:04:38.803Z,3.15
2019-02-03T00:05:38.748Z,3.11
2019-02-03T00:06:38.669Z,3.09
2019-02-03T00:07:38.597Z,3.11
2019-02-03T00:08:38.529Z,3.08
2019-02-03T00:09:38.462Z,3.09
2019-02-03T00:10:38.397Z,3.17
2019-02-03T00:11:38.329Z,2.96
2019-02-03T00:12:38.259Z,3.05
2019-02-03T00:13:38.206Z,3.04
2019-02-03T00:14:38.122Z,3.07
2019-02-03T00:15:38.055Z,3.07
2019-02-03T00:16:37.988Z,2.99
2019-02-03T00:17:37.921Z,3.04
2019-02-03T00:18:37.851Z,3.11
2019-02-03T00:19:37.785Z,3.11
2019-02-03T00:20:37.713Z,3.23
2019-02-03T00:21:37.647Z,3.23
2019-02-03T00:22:37.590Z,3.25
2019-02-03T00:23:37.516Z,3.22
2019-02-03T00:24:37.456Z,3.26
2019-02-03T00:25:37.383Z,3.18
2019-02-03T00:26:37.308Z,3.20
2019-02-03T00:27:37.240Z,3.12
2019-02-03T00:28:37.170Z,3.18
2019-02-03T00:29:37.102Z,3.14
2019-02-03T00:30:37.046Z,3.20
2019-02-03T00:31:36.967Z,3.12
2019-02-03T00:32:36.900Z,3.20
2019-02-03T00:33:36.838Z,3.20
2019-02-03T00:34:36.763Z,3.23
2019-02-03T00:35:36.695Z,3.14
2019-02-03T00:36:36.628Z,3.15
2019-02-03T00:37:36.568Z,3.14
2019-02-03T00:38:36.519Z,3.09
2019-02-03T00:39:36.517Z,3.07
2019-02-03T00:40:36.379Z,3.14
2019-02-03T00:41:36.353Z,3.18
2019-02-03T00:42:36.222Z,3.07
2019-02-03T00:43:36.158Z,3.09
2019-02-03T00:44:36.082Z,3.07
2019-02-03T00:45:36.017Z,3.05
2019-02-03T00:46:35.946Z,3.09
2019-02-03T00:47:35.877Z,3.11
2019-02-03T00:48:35.808Z,3.11
2019-02-03T00:49:35.739Z,3.11
2019-02-03T00:50:35.675Z,3.17
2019-02-03T00:51:35.608Z,3.08
2019-02-03T00:52:35.544Z,3.09
2019-02-03T00:53:35.485Z,2.94
2019-02-03T00:54:35.403Z,3.00
2019-02-03T00:55:35.334Z,2.96
2019-02-03T00:56:35.275Z,3.11
2019-02-03T00:57:35.202Z,3.09
2019-02-03T00:58:35.134Z,3.00
2019-02-03T00:59:35.064Z,3.09
2019-02-03T01:00:34.993Z,3.15
2019-02-03T01:01:34.930Z,3.12
2019-02-03T01:02:34.862Z,3.05
2019-02-03T01:03:34.800Z,3.15
2019-02-03T01:04:34.726Z,3.07
2019-02-03T01:05:34.666Z,3.15
2019-02-03T01:06:34.587Z,3.05
2019-02-03T01:07:34.524Z,3.02
2019-02-03T01:08:34.460Z,3.00
2019-02-03T01:09:34.401Z,3.11
2019-02-03T01:10:34.321Z,3.04
2019-02-03T01:11:34.249Z,3.00
2019-02-03T01:12:34.178Z,3.07
2019-02-03T01:13:34.115Z,3.08
2019-02-03T01:14:34.040Z,3.04
2019-02-03T01:15:33.970Z,2.97
2019-02-03T01:16:33.910Z,2.94
2019-02-03T01:17:33.855Z,2.97
2019-02-03T01:18:33.771Z,2.94
2019-02-03T01:19:33.704Z,2.99
2019-02-03T01:20:33.636Z,3.07
2019-02-03T01:21:33.566Z,3.07
2019-02-03T01:22:33.504Z,3.07
2019-02-03T01:23:33.439Z,3.18
2019-02-03T01:24:33.368Z,3.18
2019-02-03T01:25:33.294Z,3.17
2019-02-03T01:26:33.230Z,3.27
2019-02-03T01:27:33.156Z,3.23
2019-02-03T01:28:33.087Z,3.20
2019-02-03T01:29:33.024Z,3.18
2019-02-03T01:30:32.951Z,3.26
2019-02-03T01:31:32.884Z,3.15
2019-02-03T01:32:32.827Z,3.15
2019-02-03T01:33:32.748Z,3.22
2019-02-03T01:34:32.679Z,3.22
2019-02-03T01:35:32.630Z,3.25
2019-02-03T01:36:32.546Z,3.25
2019-02-03T01:37:39.410Z,3.25
2019-02-03T01:38:32.408Z,3.07
2019-02-03T01:39:32.341Z,3.17
2019-02-03T01:40:32.273Z,3.22
2019-02-03T01:41:32.203Z,3.17
2019-02-03T01:42:32.135Z,3.17
2019-02-03T01:43:32.071Z,3.14
2019-02-03T01:44:31.997Z,3.17
2019-02-03T01:45:31.931Z,3.23
2019-02-03T01:46:31.861Z,3.17
2019-02-03T01:47:31.797Z,3.17
2019-02-03T01:48:31.727Z,3.15
2019-02-03T01:49:31.662Z,3.14
2019-02-03T01:50:31.592Z,3.20
2019-02-03T01:51:31.538Z,3.12
2019-02-03T01:52:31.457Z,3.15
2019-02-03T01:53:31.386Z,3.22
2019-02-03T01:54:31.320Z,3.26
2019-02-03T01:55:31.248Z,3.27
2019-02-03T01:56:31.181Z,3.25
2019-02-03T01:57:31.112Z,3.26
2019-02-03T01:58:31.048Z,3.25
2019-02-03T01:59:30.974Z,3.30
2019-02-03T02:00:30.907Z,3.25
2019-02-03T02:01:30.842Z,3.29
2019-02-03T02:02:30.777Z,3.25
2019-02-03T02:03:30.717Z,3.25
2019-02-03T02:04:30.636Z,3.25
2019-02-03T02:05:30.566Z,3.17
2019-02-03T02:06:30.502Z,3.35
2019-02-03T02:07:30.433Z,3.35
2019-02-03T02:08:30.361Z,3.30
2019-02-03T02:09:30.295Z,3.27
2019-02-03T02:10:30.229Z,3.32
2019-02-03T02:11:30.159Z,3.37
2019-02-03T02:12:30.091Z,3.45
2019-02-03T02:13:30.023Z,3.33
2019-02-03T02:14:29.957Z,3.35
2019-02-03T02:15:29.890Z,3.30
2019-02-03T02:16:29.824Z,3.41
2019-02-03T02:17:29.751Z,3.46
2019-02-03T02:18:29.689Z,3.36
2019-02-03T02:19:29.614Z,3.41
2019-02-03T02:20:29.548Z,3.45
2019-02-03T02:21:29.478Z,3.45
2019-02-03T02:22:29.414Z,3.52
2019-02-03T02:23:29.342Z,3.44
2019-02-03T02:24:29.278Z,3.45
2019-02-03T02:25:29.208Z,3.41
2019-02-03T02:26:29.138Z,3.44
2019-02-03T02:27:29.072Z,3.42
2019-02-03T02:28:29.068Z,3.36
2019-02-03T02:29:28.933Z,3.36
2019-02-03T02:30:28.879Z,3.32
2019-02-03T02:31:28.801Z,3.35
2019-02-03T02:32:28.731Z,3.33
2019-02-03T02:33:28.664Z,3.33
2019-02-03T02:34:28.603Z,3.37
2019-02-03T02:35:28.532Z,3.35
2019-02-03T02:36:28.465Z,3.41
2019-02-03T02:37:28.393Z,3.45
2019-02-03T02:38:28.322Z,3.48
2019-02-03T02:39:28.261Z,3.49
2019-02-03T02:40:28.185Z,3.37
2019-02-03T02:41:28.122Z,3.37
2019-02-03T02:42:28.050Z,3.41
2019-02-03T02:43:27.992Z,3.42
2019-02-03T02:44:27.914Z,3.42
2019-02-03T02:45:27.853Z,3.45
2019-02-03T02:46:27.783Z,3.46
2019-02-03T02:47:27.728Z,3.44
2019-02-03T02:48:27.645Z,3.42
2019-02-03T02:49:27.580Z,3.45
2019-02-03T02:50:27.531Z,3.42
2019-02-03T02:51:27.442Z,3.45
2019-02-03T02:52:27.371Z,3.46
2019-02-03T02:53:27.310Z,3.45
2019-02-03T02:54:27.237Z,3.37
2019-02-03T02:55:27.166Z,3.32
2019-02-03T02:56:27.103Z,3.36
2019-02-03T02:57:27.035Z,3.36
2019-02-03T02:58:26.963Z,3.36
2019-02-03T02:59:26.904Z,3.36
2019-02-03T03:00:26.831Z,3.44
2019-02-03T03:01:26.767Z,3.49
2019-02-03T03:02:26.693Z,3.44
2019-02-03T03:03:26.635Z,3.44
2019-02-03T03:04:26.558Z,3.45
2019-02-03T03:05:26.501Z,3.49
2019-02-03T03:06:26.449Z,3.49
2019-02-03T03:07:26.355Z,3.51
2019-02-03T03:08:26.285Z,3.45
2019-02-03T03:09:26.218Z,3.56
2019-02-03T03:10:26.152Z,3.55
2019-02-03T03:11:26.082Z,3.36
2019-02-03T03:12:26.014Z,3.42
2019-02-03T03:13:25.967Z,3.36
2019-02-03T03:14:25.937Z,3.37
2019-02-03T03:15:25.820Z,3.37
2019-02-03T03:16:25.744Z,3.46
2019-02-03T03:17:25.675Z,3.36
2019-02-03T03:18:25.604Z,3.46
2019-02-03T03:19:25.563Z,3.48
2019-02-03T03:20:25.475Z,3.44
2019-02-03T03:21:25.400Z,3.46
2019-02-03T03:22:25.348Z,3.42
2019-02-03T03:23:25.265Z,3.45
2019-02-03T03:24:25.207Z,3.37
2019-02-03T03:25:25.134Z,3.36
2019-02-03T03:26:25.059Z,3.48
2019-02-03T03:27:24.998Z,3.35
2019-02-03T03:28:24.927Z,3.42
2019-02-03T03:29:24.860Z,3.45
2019-02-03T03:30:24.802Z,3.52
2019-02-03T03:31:24.766Z,3.44
2019-02-03T03:32:24.671Z,3.46
2019-02-03T03:33:24.613Z,3.46
2019-02-03T03:34:24.518Z,3.49
2019-02-03T03:35:24.461Z,3.54
2019-02-03T03:36:24.390Z,3.51
2019-02-03T03:37:24.315Z,3.45
2019-02-03T03:38:32.209Z,3.48
2019-02-03T03:39:24.184Z,3.52
2019-02-03T03:40:24.109Z,3.51
2019-02-03T03:41:24.041Z,3.44
2019-02-03T03:42:23.984Z,3.41
2019-02-03T03:43:23.919Z,3.44
2019-02-03T03:44:23.839Z,3.49
2019-02-03T03:45:23.775Z,3.41
2019-02-03T03:46:23.716Z,3.45
2019-02-03T03:47:23.636Z,3.33
2019-02-03T03:48:23.566Z,3.42
2019-02-03T03:49:23.498Z,3.41
2019-02-03T03:50:23.435Z,3.52
2019-02-03T03:51:23.360Z,3.37
2019-02-03T03:52:23.294Z,3.48
2019-02-03T03:53:23.231Z,3.45
2019-02-03T03:54:23.161Z,3.46
2019-02-03T03:55:23.107Z,3.46
2019-02-03T03:56:23.039Z,3.42
2019-02-03T03:57:22.954Z,3.45
2019-02-03T03:58:22.884Z,3.45
2019-02-03T03:59:22.818Z,3.41
2019-02-03T04:00:22.750Z,3.41
2019-02-03T04:01:22.682Z,3.48
2019-02-03T04:02:22.613Z,3.36
2019-02-03T04:03:22.548Z,3.30
2019-02-03T04:04:22.487Z,3.36
2019-02-03T04:05:22.420Z,3.36
2019-02-03T04:06:22.342Z,3.36
2019-02-03T04:07:22.274Z,3.48
2019-02-03T04:08:22.213Z,3.36
2019-02-03T04:09:22.137Z,3.35
2019-02-03T04:10:22.071Z,3.51
2019-02-03T04:11:22.003Z,3.36
2019-02-03T04:12:21.941Z,3.35
2019-02-03T04:13:21.869Z,3.32
2019-02-03T04:14:21.796Z,3.27
2019-02-03T04:15:21.841Z,3.33
2019-02-03T04:16:21.666Z,3.36
2019-02-03T04:17:21.593Z,3.33
2019-02-03T04:18:21.521Z,3.30
2019-02-03T04:19:21.456Z,3.30
2019-02-03T04:20:21.395Z,3.32
2019-02-03T04:21:21.318Z,3.32
2019-02-03T04:22:21.251Z,3.30
2019-02-03T04:23:21.187Z,3.33
2019-02-03T04:24:21.134Z,3.32
2019-02-03T04:25:21.051Z,3.36
2019-02-03T04:26:20.988Z,3.33
2019-02-03T04:27:20.911Z,3.29
2019-02-03T04:28:20.845Z,3.37
2019-02-03T04:29:20.774Z,3.42
2019-02-03T04:30:20.709Z,3.44
2019-02-03T04:31:20.642Z,3.30
2019-02-03T04:32:20.567Z,3.37
2019-02-03T04:33:20.497Z,3.32
2019-02-03T04:34:20.531Z,3.37
2019-02-03T04:35:20.386Z,3.42
2019-02-03T04:36:20.298Z,3.45
2019-02-03T04:37:20.224Z,3.42
2019-02-03T04:38:20.161Z,3.35
2019-02-03T04:39:20.093Z,3.37
2019-02-03T04:40:20.032Z,3.35
2019-02-03T04:41:19.953Z,3.35
2019-02-03T04:42:19.891Z,3.37
2019-02-03T04:43:19.831Z,3.41
2019-02-03T04:44:19.747Z,3.41
2019-02-03T04:45:22.398Z,3.42
2019-02-03T04:46:19.615Z,3.51
2019-02-03T04:47:19.546Z,3.35
2019-02-03T04:48:19.478Z,3.44
2019-02-03T04:49:19.409Z,3.41
2019-02-03T04:50:19.359Z,3.33
2019-02-03T04:51:19.271Z,3.29
2019-02-03T04:52:19.201Z,3.30
2019-02-03T04:53:19.234Z,3.33
2019-02-03T04:54:19.067Z,3.46
2019-02-03T04:55:19.185Z,3.46
2019-02-03T04:56:18.930Z,3.45
2019-02-03T04:57:18.860Z,3.37
2019-02-03T04:58:18.801Z,3.45
2019-02-03T04:59:18.728Z,3.44
2019-02-03T05:00:18.688Z,3.35
2019-02-03T05:01:18.610Z,3.42
2019-02-03T05:02:18.523Z,3.48
2019-02-03T05:03:18.453Z,3.45
2019-02-03T05:04:18.385Z,3.41
2019-02-03T05:05:18.328Z,3.49
2019-02-03T05:06:18.248Z,3.41
2019-02-03T05:07:18.183Z,3.44
2019-02-03T05:08:18.114Z,3.33
2019-02-03T05:09:18.046Z,3.44
2019-02-03T05:10:17.986Z,3.42
2019-02-03T05:11:17.910Z,3.41
2019-02-03T05:12:17.849Z,3.51
2019-02-03T05:13:17.775Z,3.49
2019-02-03T05:14:17.708Z,3.48
2019-02-03T05:15:17.637Z,3.55
2019-02-03T05:16:17.583Z,3.48
2019-02-03T05:17:19.019Z,3.45
2019-02-03T05:18:17.432Z,3.45
2019-02-03T05:19:17.367Z,3.48
2019-02-03T05:20:17.306Z,3.45
2019-02-03T05:21:17.225Z,3.52
2019-02-03T05:22:17.164Z,3.48
2019-02-03T05:23:17.095Z,3.48
2019-02-03T05:24:17.042Z,3.48
2019-02-03T05:25:16.961Z,3.48
2019-02-03T05:26:16.894Z,3.46
2019-02-03T05:27:16.823Z,3.48
2019-02-03T05:28:16.751Z,3.42
2019-02-03T05:29:16.685Z,3.37
2019-02-03T05:30:16.635Z,3.41
2019-02-03T05:31:16.550Z,3.41
2019-02-03T05:32:16.479Z,3.33
2019-02-03T05:33:16.414Z,3.32
2019-02-03T05:34:16.342Z,3.35
2019-02-03T05:35:16.288Z,3.30
2019-02-03T05:36:16.367Z,3.33
2019-02-03T05:37:16.139Z,3.36
2019-02-03T05:38:16.070Z,3.27
2019-02-03T05:39:24.584Z,3.25
2019-02-03T05:40:15.939Z,3.32
2019-02-03T05:41:15.872Z,3.35
2019-02-03T05:42:15.801Z,3.35
2019-02-03T05:43:15.733Z,3.30
2019-02-03T05:44:15.662Z,3.22
2019-02-03T05:45:15.598Z,3.20
2019-02-03T05:46:15.532Z,3.29
2019-02-03T05:47:15.456Z,3.35
2019-02-03T05:48:15.395Z,3.20
2019-02-03T05:49:15.319Z,3.23
2019-02-03T05:50:15.252Z,3.32
2019-02-03T05:51:15.187Z,3.37
2019-02-03T05:52:15.117Z,3.33
2019-02-03T05:53:15.051Z,3.35
2019-02-03T05:54:14.979Z,3.30
2019-02-03T05:55:14.916Z,3.35
2019-02-03T05:56:14.850Z,3.30
2019-02-03T05:57:14.777Z,3.18
2019-02-03T05:58:14.710Z,3.18
2019-02-03T05:59:14.644Z,3.18
2019-02-03T06:00:14.571Z,3.23
2019-02-03T06:01:14.505Z,3.20
2019-02-03T06:02:14.442Z,3.23
2019-02-03T06:03:14.367Z,3.22
2019-02-03T06:04:14.302Z,3.14
2019-02-03T06:05:14.237Z,3.18
2019-02-03T06:06:14.166Z,3.20
2019-02-03T06:07:14.101Z,3.20
2019-02-03T06:08:14.027Z,3.15
2019-02-03T06:09:13.958Z,3.07
2019-02-03T06:10:13.898Z,3.02
2019-02-03T06:11:13.822Z,2.99
2019-02-03T06:12:13.753Z,3.05
2019-02-03T06:13:13.688Z,2.96
2019-02-03T06:14:13.637Z,3.12
2019-02-03T06:15:13.551Z,3.04
2019-02-03T06:16:13.480Z,3.00
2019-02-03T06:17:13.413Z,3.05
2019-02-03T06:18:13.347Z,3.07
2019-02-03T06:19:13.279Z,2.97
2019-02-03T06:20:13.206Z,3.00
2019-02-03T06:21:13.153Z,2.93
2019-02-03T06:22:13.070Z,2.96
2019-02-03T06:23:13.007Z,2.99
2019-02-03T06:24:12.933Z,2.94
2019-02-03T06:25:12.868Z,2.91
2019-02-03T06:26:12.799Z,2.90
2019-02-03T06:27:12.728Z,2.82
2019-02-03T06:28:12.659Z,2.90
2019-02-03T06:29:12.592Z,2.90
2019-02-03T06:30:12.523Z,2.81
2019-02-03T06:31:14.480Z,2.78
2019-02-03T06:32:12.388Z,2.79
2019-02-03T06:33:12.320Z,2.71
2019-02-03T06:34:12.253Z,2.73
2019-02-03T06:35:12.193Z,2.65
2019-02-03T06:36:12.115Z,2.71
2019-02-03T06:37:12.044Z,2.65
2019-02-03T06:38:11.976Z,2.75
2019-02-03T06:39:11.919Z,2.75
2019-02-03T06:40:11.837Z,2.71
2019-02-03T06:41:11.770Z,2.69
2019-02-03T06:42:14.349Z,2.72
2019-02-03T06:43:11.635Z,2.61
2019-02-03T06:44:11.561Z,2.81
2019-02-03T06:45:11.496Z,2.69
2019-02-03T06:46:11.428Z,2.72
2019-02-03T06:47:11.358Z,2.69
2019-02-03T06:48:11.293Z,2.65
2019-02-03T06:49:11.233Z,2.65
2019-02-03T06:50:11.177Z,2.63
2019-02-03T06:51:11.089Z,2.60
2019-02-03T06:52:11.016Z,2.76
2019-02-03T06:53:10.949Z,2.57
2019-02-03T06:54:10.888Z,2.65
2019-02-03T06:55:10.809Z,2.58
2019-02-03T06:56:10.740Z,2.58
2019-02-03T06:57:10.673Z,2.57
2019-02-03T06:58:10.607Z,2.48
2019-02-03T06:59:10.536Z,2.51
2019-02-03T07:00:10.468Z,2.57
2019-02-03T07:01:10.399Z,2.54
2019-02-03T07:02:10.330Z,2.42
2019-02-03T07:03:10.259Z,2.51
2019-02-03T07:04:10.194Z,2.57
2019-02-03T07:05:10.124Z,2.55
2019-02-03T07:06:10.056Z,2.50
2019-02-03T07:07:09.991Z,2.37
2019-02-03T07:08:09.928Z,2.40
2019-02-03T07:09:09.860Z,2.50
2019-02-03T07:10:09.782Z,2.40
2019-02-03T07:11:09.712Z,2.36
2019-02-03T07:12:09.651Z,2.51
2019-02-03T07:13:09.582Z,2.48
2019-02-03T07:14:09.510Z,2.43
2019-02-03T07:15:09.438Z,2.42
2019-02-03T07:16:09.369Z,2.42
2019-02-03T07:17:09.303Z,2.43
2019-02-03T07:18:09.231Z,2.42
2019-02-03T07:19:09.164Z,2.47
2019-02-03T07:20:09.093Z,2.42
2019-02-03T07:21:09.022Z,2.47
2019-02-03T07:22:08.957Z,2.45
2019-02-03T07:23:08.893Z,2.40
2019-02-03T07:24:08.824Z,2.28
2019-02-03T07:25:08.754Z,2.29
2019-02-03T07:26:08.688Z,2.43
2019-02-03T07:27:08.613Z,2.36
2019-02-03T07:28:08.544Z,2.35
2019-02-03T07:29:08.476Z,2.28
2019-02-03T07:30:08.409Z,2.33
2019-02-03T07:31:08.340Z,2.28
2019-02-03T07:32:08.281Z,2.36
2019-02-03T07:33:08.201Z,2.33
2019-02-03T07:34:08.131Z,2.22
2019-02-03T07:35:08.069Z,2.29
2019-02-03T07:36:08.022Z,2.29
2019-02-03T07:37:07.924Z,2.24
2019-02-03T07:38:10.558Z,2.25
2019-02-03T07:39:07.792Z,2.29
2019-02-03T07:40:12.438Z,2.18
2019-02-03T07:41:07.651Z,2.22
2019-02-03T07:42:07.588Z,2.25
2019-02-03T07:43:07.517Z,2.28
2019-02-03T07:44:07.446Z,2.28
2019-02-03T07:45:07.374Z,2.25
2019-02-03T07:46:07.310Z,2.35
2019-02-03T07:47:07.238Z,2.24
2019-02-03T07:48:07.167Z,2.22
2019-02-03T07:49:07.098Z,2.22
2019-02-03T07:50:07.030Z,2.22
2019-02-03T07:51:06.964Z,2.32
2019-02-03T07:52:06.895Z,2.10
2019-02-03T07:53:08.699Z,2.11
2019-02-03T07:54:08.499Z,2.21
2019-02-03T07:55:06.695Z,2.10
2019-02-03T07:56:06.638Z,2.14
2019-02-03T07:57:06.553Z,2.19
2019-02-03T07:58:06.483Z,2.12
2019-02-03T07:59:06.421Z,2.12
2019-02-03T08:00:06.342Z,2.17
2019-02-03T08:01:06.274Z,2.14
2019-02-03T08:02:06.205Z,2.19
2019-02-03T08:03:06.139Z,2.19
2019-02-03T08:04:06.065Z,2.15
2019-02-03T08:05:06.002Z,2.14
2019-02-03T08:06:05.931Z,2.11
2019-02-03T08:07:05.864Z,2.18
2019-02-03T08:08:05.793Z,2.15
2019-02-03T08:09:05.731Z,2.11
2019-02-03T08:10:05.657Z,2.17
2019-02-03T08:11:05.588Z,2.11
2019-02-03T08:12:05.526Z,2.07
2019-02-03T08:13:05.462Z,2.14
2019-02-03T08:14:05.379Z,2.21
2019-02-03T08:15:05.316Z,2.10
2019-02-03T08:16:05.247Z,2.22
2019-02-03T08:17:05.180Z,2.14
2019-02-03T08:18:05.114Z,2.19
2019-02-03T08:19:05.037Z,2.15
2019-02-03T08:20:04.970Z,2.19
2019-02-03T08:21:04.897Z,2.14
2019-02-03T08:22:04.827Z,2.19
2019-02-03T08:23:04.760Z,2.10
2019-02-03T08:24:04.694Z,2.15
2019-02-03T08:25:04.623Z,2.12
2019-02-03T08:26:04.574Z,2.14
2019-02-03T08:27:04.486Z,2.15
2019-02-03T08:28:04.417Z,2.12
2019-02-03T08:29:04.345Z,2.15
2019-02-03T08:30:04.280Z,2.15
2019-02-03T08:31:04.209Z,2.07
2019-02-03T08:32:04.140Z,2.14
2019-02-03T08:33:04.070Z,2.01
2019-02-03T08:34:04.006Z,2.12
2019-02-03T08:35:03.933Z,2.10
2019-02-03T08:36:03.863Z,2.00
2019-02-03T08:37:03.794Z,2.12
2019-02-03T08:38:03.725Z,2.01
2019-02-03T08:39:03.658Z,2.07
2019-02-03T08:40:03.586Z,2.07
2019-02-03T08:41:03.523Z,2.14
2019-02-03T08:42:03.452Z,2.15
2019-02-03T08:43:03.385Z,2.17
2019-02-03T08:44:03.314Z,2.07
2019-02-03T08:45:03.258Z,2.12
2019-02-03T08:46:03.173Z,2.11
2019-02-03T08:47:03.107Z,2.04
2019-02-03T08:48:03.047Z,2.15
2019-02-03T08:49:02.965Z,2.12
2019-02-03T08:50:02.900Z,2.06
2019-02-03T08:51:02.830Z,2.12
2019-02-03T08:52:02.765Z,2.04
2019-02-03T08:53:02.693Z,2.01
2019-02-03T08:54:02.627Z,2.03
2019-02-03T08:55:02.556Z,2.07
2019-02-03T08:56:02.485Z,1.97
2019-02-03T08:57:02.416Z,2.00
2019-02-03T08:58:02.348Z,2.04
2019-02-03T08:59:02.283Z,2.07
2019-02-03T09:00:02.207Z,2.06
2019-02-03T09:01:02.140Z,2.07
2019-02-03T09:02:02.073Z,2.11
2019-02-03T09:03:02.000Z,2.06
2019-02-03T09:04:01.939Z,1.95
2019-02-03T09:05:01.865Z,2.11
2019-02-03T09:06:01.791Z,2.06
2019-02-03T09:07:01.728Z,2.04
2019-02-03T09:08:01.656Z,2.04
2019-02-03T09:09:01.599Z,1.93
2019-02-03T09:10:01.533Z,2.10
2019-02-03T09:11:01.457Z,2.06
2019-02-03T09:12:01.377Z,2.06
2019-02-03T09:13:01.313Z,1.93
2019-02-03T09:14:01.241Z,2.04
2019-02-03T09:15:01.173Z,2.00
2019-02-03T09:16:01.129Z,2.06
2019-02-03T09:17:01.031Z,1.93
2019-02-03T09:18:00.965Z,2.03
2019-02-03T09:19:00.897Z,2.07
2019-02-03T09:20:00.830Z,2.00
2019-02-03T09:21:00.758Z,2.04
2019-02-03T09:22:00.690Z,2.10
2019-02-03T09:23:00.707Z,1.95
2019-02-03T09:24:00.548Z,2.06
2019-02-03T09:25:00.480Z,1.93
2019-02-03T09:26:00.418Z,1.92
2019-02-03T09:27:00.345Z,1.99
2019-02-03T09:28:00.281Z,1.92
2019-02-03T09:29:00.205Z,1.95
2019-02-03T09:30:00.337Z,1.93
2019-02-03T09:31:00.063Z,1.95
2019-02-03T09:31:59.996Z,1.99
2019-02-03T09:32:59.926Z,1.93
2019-02-03T09:33:59.866Z,1.95
2019-02-03T09:34:59.786Z,1.99
2019-02-03T09:35:59.719Z,1.95
2019-02-03T09:36:59.650Z,2.01
2019-02-03T09:37:59.598Z,1.95
2019-02-03T09:38:59.511Z,1.95
2019-02-03T09:39:59.444Z,1.92
2019-02-03T09:41:00.454Z,1.87
2019-02-03T09:41:59.302Z,1.87
2019-02-03T09:42:59.234Z,1.91
2019-02-03T09:43:59.162Z,1.99
2019-02-03T09:44:59.094Z,1.92
2019-02-03T09:45:59.023Z,1.97
2019-02-03T09:46:58.957Z,1.93
2019-02-03T09:47:58.887Z,1.97
2019-02-03T09:48:58.818Z,1.99
2019-02-03T09:49:58.753Z,1.93
2019-02-03T09:50:58.682Z,1.82
2019-02-03T09:51:58.613Z,1.78
2019-02-03T09:52:58.547Z,1.84
2019-02-03T09:53:58.473Z,1.95
2019-02-03T09:54:58.402Z,1.92
2019-02-03T09:55:58.334Z,1.95
2019-02-03T09:56:58.265Z,1.91
2019-02-03T09:57:58.195Z,1.91
2019-02-03T09:58:58.128Z,1.97
2019-02-03T09:59:58.082Z,1.95
2019-02-03T10:00:57.992Z,1.92
2019-02-03T10:01:57.928Z,1.80
2019-02-03T10:02:57.848Z,1.84
2019-02-03T10:03:57.776Z,1.81
2019-02-03T10:04:57.712Z,1.82
2019-02-03T10:05:57.650Z,1.91
2019-02-03T10:06:57.570Z,1.93
2019-02-03T10:07:57.505Z,1.93
2019-02-03T10:08:57.432Z,1.95
2019-02-03T10:09:57.364Z,1.93
2019-02-03T10:10:57.298Z,1.84
2019-02-03T10:11:57.224Z,1.91
2019-02-03T10:12:57.156Z,1.80
2019-02-03T10:13:57.087Z,1.92
2019-02-03T10:14:57.018Z,1.82
2019-02-03T10:15:56.975Z,1.91
2019-02-03T10:16:56.877Z,1.81
2019-02-03T10:17:56.809Z,1.84
2019-02-03T10:18:56.741Z,1.92
2019-02-03T10:19:56.669Z,1.84
2019-02-03T10:20:56.602Z,1.82
2019-02-03T10:21:56.543Z,1.81
2019-02-03T10:22:56.465Z,1.84
2019-02-03T10:23:56.394Z,1.89
2019-02-03T10:24:56.327Z,1.93
2019-02-03T10:25:56.254Z,1.95
2019-02-03T10:26:56.188Z,1.97
2019-02-03T10:27:56.193Z,1.97
2019-02-03T10:28:56.054Z,1.84
2019-02-03T10:29:55.982Z,1.89
2019-02-03T10:30:55.911Z,1.93
2019-02-03T10:31:55.842Z,1.78
2019-02-03T10:32:55.772Z,1.82
2019-02-03T10:33:55.709Z,1.82
2019-02-03T10:34:55.635Z,1.87
2019-02-03T10:35:55.565Z,1.74
2019-02-03T10:36:55.495Z,1.66
2019-02-03T10:38:09.946Z,1.71
2019-02-03T10:38:55.358Z,1.74
2019-02-03T10:39:55.287Z,1.59
2019-02-03T10:40:55.224Z,1.74
2019-02-03T10:41:55.151Z,1.69
2019-02-03T10:42:55.085Z,1.59
2019-02-03T10:43:56.458Z,1.67
2019-02-03T10:44:54.962Z,1.67
2019-02-03T10:45:54.883Z,1.63
2019-02-03T10:46:54.803Z,1.57
2019-02-03T10:47:54.732Z,1.57
2019-02-03T10:48:54.670Z,1.66
2019-02-03T10:49:54.600Z,1.67
2019-02-03T10:50:54.529Z,1.67
2019-02-03T10:51:54.455Z,1.64
2019-02-03T10:52:54.396Z,1.67
2019-02-03T10:53:54.318Z,1.56
2019-02-03T10:54:55.965Z,1.64
2019-02-03T10:55:54.179Z,1.59
2019-02-03T10:56:54.116Z,1.53
2019-02-03T10:57:54.040Z,1.59
2019-02-03T10:58:53.974Z,1.52
2019-02-03T10:59:53.904Z,1.57
2019-02-03T11:00:55.221Z,1.59
2019-02-03T11:01:53.766Z,1.57
2019-02-03T11:02:53.693Z,1.52
2019-02-03T11:03:53.627Z,1.49
2019-02-03T11:04:53.557Z,1.63
2019-02-03T11:05:53.483Z,1.62
2019-02-03T11:06:53.414Z,1.57
2019-02-03T11:07:53.354Z,1.56
2019-02-03T11:08:53.278Z,1.60
2019-02-03T11:09:53.208Z,1.60
2019-02-03T11:10:53.154Z,1.62
2019-02-03T11:11:53.075Z,1.55
2019-02-03T11:12:53.000Z,1.52
2019-02-03T11:13:52.932Z,1.52
2019-02-03T11:14:52.861Z,1.55
2019-02-03T11:15:52.809Z,1.44
2019-02-03T11:16:52.727Z,1.53
2019-02-03T11:17:52.663Z,1.66
2019-02-03T11:18:52.585Z,1.48
2019-02-03T11:19:52.521Z,1.55
2019-02-03T11:20:52.446Z,1.56
2019-02-03T11:21:52.375Z,1.56
2019-02-03T11:22:52.311Z,1.53
2019-02-03T11:23:52.236Z,1.55
2019-02-03T11:24:52.169Z,1.45
2019-02-03T11:25:52.099Z,1.46
2019-02-03T11:26:52.033Z,1.46
2019-02-03T11:27:51.956Z,1.55
2019-02-03T11:28:51.888Z,1.48
2019-02-03T11:29:51.826Z,1.55
2019-02-03T11:30:51.765Z,1.59
2019-02-03T11:31:54.311Z,1.42
2019-02-03T11:32:51.630Z,1.52
2019-02-03T11:33:51.543Z,1.59
2019-02-03T11:34:51.479Z,1.57
2019-02-03T11:35:51.403Z,1.60
2019-02-03T11:36:51.335Z,1.42
2019-02-03T11:37:51.281Z,1.48
2019-02-03T11:38:51.208Z,1.53
2019-02-03T11:39:51.171Z,1.39
2019-02-03T11:40:51.071Z,1.49
2019-02-03T11:41:50.987Z,1.46
2019-02-03T11:42:50.916Z,1.53
2019-02-03T11:43:50.861Z,1.45
2019-02-03T11:44:50.778Z,1.46
2019-02-03T11:45:50.722Z,1.46
2019-02-03T11:46:50.651Z,1.57
2019-02-03T11:47:50.575Z,1.46
2019-02-03T11:48:50.515Z,1.42
2019-02-03T11:49:50.431Z,1.34
2019-02-03T11:50:50.378Z,1.36
2019-02-03T11:51:50.309Z,1.23
2019-02-03T11:52:50.224Z,1.31
2019-02-03T11:53:50.159Z,1.30
2019-02-03T11:54:50.086Z,1.44
2019-02-03T11:55:50.038Z,1.44
2019-02-03T11:56:49.991Z,1.35
2019-02-03T11:57:49.882Z,1.38
2019-02-03T11:58:49.812Z,1.35
2019-02-03T11:59:49.743Z,1.38
2019-02-03T12:00:49.677Z,1.38
2019-02-03T12:01:49.605Z,1.49
2019-02-03T12:02:49.538Z,1.41
2019-02-03T12:03:49.482Z,1.26
2019-02-03T12:04:49.390Z,1.20
2019-02-03T12:05:49.332Z,1.17
2019-02-03T12:06:49.253Z,1.23
2019-02-03T12:07:49.194Z,1.26
2019-02-03T12:08:49.116Z,1.26
2019-02-03T12:09:49.051Z,1.28
2019-02-03T12:10:48.980Z,1.21
2019-02-03T12:12:00.575Z,1.26
2019-02-03T12:12:48.838Z,1.27
2019-02-03T12:13:48.770Z,1.24
2019-02-03T12:14:48.706Z,1.23
2019-02-03T12:15:48.746Z,1.20
2019-02-03T12:16:48.567Z,1.18
2019-02-03T12:17:48.489Z,1.17
2019-02-03T12:18:48.421Z,1.05
2019-02-03T12:19:48.352Z,1.02
2019-02-03T12:20:48.283Z,1.08
2019-02-03T12:21:48.231Z,1.12
2019-02-03T12:22:48.150Z,1.05
2019-02-03T12:23:48.076Z,1.03
2019-02-03T12:24:48.007Z,0.94
2019-02-03T12:25:47.936Z,0.88
2019-02-03T12:26:47.866Z,1.02
2019-02-03T12:27:47.796Z,1.06
2019-02-03T12:28:47.727Z,1.08
2019-02-03T12:29:47.760Z,1.17
2019-02-03T12:30:47.588Z,1.17
2019-02-03T12:31:47.515Z,1.24
2019-02-03T12:32:47.450Z,1.24
2019-02-03T12:33:47.380Z,1.24
2019-02-03T12:34:47.309Z,1.23
2019-02-03T12:35:47.248Z,1.21
2019-02-03T12:36:47.169Z,1.18
2019-02-03T12:37:47.101Z,1.12
2019-02-03T12:38:47.034Z,1.13
2019-02-03T12:39:46.969Z,1.10
2019-02-03T12:40:46.894Z,1.06
2019-02-03T12:41:48.127Z,0.98
2019-02-03T12:42:46.752Z,0.99
2019-02-03T12:43:46.684Z,0.88
2019-02-03T12:44:46.616Z,1.05
2019-02-03T12:45:46.553Z,1.00
2019-02-03T12:46:46.476Z,0.92
2019-02-03T12:47:46.409Z,0.92
2019-02-03T12:48:46.338Z,0.85
2019-02-03T12:49:46.266Z,0.85
2019-02-03T12:50:46.196Z,0.88
2019-02-03T12:51:46.129Z,0.90
2019-02-03T12:52:46.062Z,0.98
2019-02-03T12:53:45.990Z,1.10
2019-02-03T12:54:45.918Z,1.12
2019-02-03T12:55:45.848Z,1.10
2019-02-03T12:56:45.780Z,1.08
2019-02-03T12:57:46.738Z,1.06
2019-02-03T12:58:45.642Z,1.09
2019-02-03T12:59:45.574Z,1.17
2019-02-03T13:00:45.503Z,1.06
2019-02-03T13:01:45.435Z,1.03
2019-02-03T13:02:45.363Z,1.03
2019-02-03T13:03:45.290Z,1.02
2019-02-03T13:04:45.221Z,1.09
2019-02-03T13:05:45.154Z,1.21
2019-02-03T13:06:45.086Z,1.21
2019-02-03T13:07:45.016Z,1.18
2019-02-03T13:08:44.943Z,1.24
2019-02-03T13:09:44.877Z,1.26
2019-02-03T13:10:44.808Z,1.24
2019-02-03T13:11:44.736Z,1.26
2019-02-03T13:12:44.667Z,1.18
2019-02-03T13:13:44.596Z,1.26
2019-02-03T13:14:44.533Z,1.24
2019-02-03T13:15:44.467Z,1.27
2019-02-03T13:16:44.392Z,1.26
2019-02-03T13:17:44.324Z,1.20